Terminal Aerodrome Forecast
Issued by NWS

Home | Current Version | Previous Version | Text Only | Print | Product List | Glossary On
Versions: 1 2 3 4 5 6 7 8 9 10 11 12 13 14 15 16 17 18 19 20 21
000
FTUS43 KLSX 180520
TAFSUS
TAF
KSUS 180520Z 1806/1906 VRB03KT 5SM BR SCT040 BKN120
     FM180900 VRB03KT 2SM BR SCT040 BKN120
     FM181400 15005KT P6SM BKN040
     FM181800 21006KT P6SM VCTS BKN040CB
     FM190000 VRB03KT P6SM SCT050 BKN120=

USA.gov is the U.S. government's official web portal to all federal, state and local government web resources and services.